Time;durP1;ratioP1;P1;durP2;ratioP2;P2;SDS_P1;SDS_P2;PMS_P1;PMS_P2;Temp;Humidity;BMP_temperature;BMP_pressure;BME280_temperature;BME280_humidity;BME280_pressure;Samples;Min_cycle;Max_cycle;Signal;HPM_P1;HPM_P2
2023/01/25 00:01:45;;;;;;;7.90;5.18;;;4.00;73.10;;;;;;5072803;28;20020;-62
2023/01/25 00:04:11;;;;;;;8.82;4.80;;;4.00;73.20;;;;;;5087738;28;20571;-61
2023/01/25 00:06:37;;;;;;;8.63;6.35;;;4.00;73.20;;;;;;5071136;28;20055;-61
2023/01/25 00:09:03;;;;;;;9.32;5.68;;;4.00;73.20;;;;;;5062172;28;20033;-61
2023/01/25 00:11:29;;;;;;;6.55;4.55;;;4.00;73.10;;;;;;5076973;28;20143;-60
2023/01/25 00:13:55;;;;;;;8.45;4.85;;;4.00;73.00;;;;;;5083719;28;20564;-60
2023/01/25 00:16:22;;;;;;;12.20;7.20;;;4.00;72.90;;;;;;5093240;28;20020;-60
2023/01/25 00:18:48;;;;;;;10.05;6.25;;;4.00;72.90;;;;;;5100062;28;20466;-61
2023/01/25 00:21:19;;;;;;;9.45;5.72;;;3.90;72.90;;;;;;5102323;28;20035;-60
2023/01/25 00:23:45;;;;;;;9.25;5.97;;;3.90;73.00;;;;;;5099554;28;20402;-60
2023/01/25 00:26:11;;;;;;;6.85;5.07;;;3.90;73.10;;;;;;5092702;28;20291;-60
2023/01/25 00:28:37;;;;;;;9.55;5.70;;;3.90;73.10;;;;;;5076384;28;20041;-60
2023/01/25 00:31:05;;;;;;;7.53;5.55;;;3.90;73.10;;;;;;5087759;28;20114;-66
2023/01/25 00:33:37;;;;;;;9.02;4.97;;;3.90;73.10;;;;;;5091628;28;20057;-60
2023/01/25 00:36:38;;;;;;;7.63;5.55;;;3.90;73.10;;;;;;5090191;28;20020;-60
2023/01/25 00:39:05;;;;;;;10.68;6.05;;;3.90;73.60;;;;;;5092201;28;20542;-61
2023/01/25 00:41:31;;;;;;;10.73;6.43;;;3.90;73.10;;;;;;5094100;28;20055;-61
2023/01/25 00:43:57;;;;;;;10.60;6.55;;;3.90;73.10;;;;;;5078331;28;20039;-60
2023/01/25 00:46:23;;;;;;;9.27;6.07;;;3.90;73.10;;;;;;5089884;28;20024;-61
2023/01/25 00:48:53;;;;;;;8.93;4.93;;;3.90;73.10;;;;;;5096298;28;20024;-67
2023/01/25 00:51:19;;;;;;;7.20;4.60;;;3.90;73.10;;;;;;5071557;28;20027;-67
2023/01/25 00:53:45;;;;;;;9.15;5.22;;;3.90;73.10;;;;;;5078874;28;20032;-68
2023/01/25 00:56:10;;;;;;;8.77;4.97;;;3.90;73.10;;;;;;5071777;28;20432;-61
2023/01/25 00:58:36;;;;;;;7.45;5.50;;;3.80;73.00;;;;;;5070364;28;20025;-68
2023/01/25 01:01:02;;;;;;;10.13;6.10;;;3.80;72.90;;;;;;5087633;28;20035;-67
2023/01/25 01:03:27;;;;;;;12.45;5.70;;;3.70;72.90;;;;;;5092654;28;20115;-68
2023/01/25 01:06:00;;;;;;;8.75;4.97;;;3.70;73.10;;;;;;5094089;28;20209;-60
2023/01/25 01:08:25;;;;;;;;;;;3.70;73.20;;;;;;5072849;28;20055;-61
2023/01/25 01:10:51;;;;;;;12.60;6.97;;;3.60;73.20;;;;;;5093222;28;19989;-61
2023/01/25 01:13:16;;;;;;;8.70;6.13;;;3.60;73.50;;;;;;5097508;28;20039;-61
2023/01/25 01:15:42;;;;;;;8.70;6.22;;;3.60;73.50;;;;;;5095011;28;20031;-60
2023/01/25 01:18:08;;;;;;;8.55;5.30;;;3.60;73.50;;;;;;5094256;28;20032;-61
2023/01/25 01:20:33;;;;;;;7.93;5.50;;;3.70;73.50;;;;;;5096332;28;20070;-69
2023/01/25 01:22:59;;;;;;;8.73;5.78;;;3.70;73.50;;;;;;5104060;28;20028;-68
2023/01/25 01:25:25;;;;;;;7.38;5.43;;;3.70;73.40;;;;;;5097365;28;20028;-67
2023/01/25 01:27:50;;;;;;;7.90;5.28;;;3.70;73.30;;;;;;5087688;28;20044;-67
2023/01/25 01:30:16;;;;;;;10.15;7.00;;;3.80;73.30;;;;;;5090969;28;20188;-67
2023/01/25 01:32:42;;;;;;;10.48;6.28;;;3.80;73.40;;;;;;5095087;28;20051;-67
2023/01/25 01:35:08;;;;;;;9.32;5.93;;;3.80;73.40;;;;;;5097118;28;20493;-66
2023/01/25 01:37:33;;;;;;;9.48;5.90;;;3.80;73.40;;;;;;5093961;28;20070;-67
2023/01/25 01:39:59;;;;;;;8.05;5.90;;;3.80;73.60;;;;;;5098505;28;20024;-67
2023/01/25 01:42:25;;;;;;;8.07;5.85;;;3.80;73.60;;;;;;5084329;28;20953;-66
2023/01/25 01:44:52;;;;;;;9.90;5.63;;;3.80;73.50;;;;;;5080002;28;20024;-66
2023/01/25 01:47:34;;;;;;;10.93;6.22;;;3.80;73.40;;;;;;5096666;28;20052;-65
2023/01/25 01:50:15;;;;;;;9.63;5.93;;;3.80;73.50;;;;;;5095603;28;20035;-60
2023/01/25 01:52:41;;;;;;;9.90;6.43;;;3.80;73.60;;;;;;5073787;28;20028;-60
2023/01/25 01:55:16;;;;;;;9.45;5.80;;;3.80;73.60;;;;;;5080922;28;20031;-59
2023/01/25 01:57:56;;;;;;;9.18;5.60;;;3.80;73.60;;;;;;5092167;28;20115;-61
2023/01/25 02:00:27;;;;;;;11.68;5.97;;;3.80;73.60;;;;;;5085130;28;20024;-60
2023/01/25 02:02:54;;;;;;;16.38;6.60;;;3.80;73.60;;;;;;5093700;28;20042;-67
2023/01/25 02:05:29;;;;;;;8.13;5.93;;;3.80;73.50;;;;;;5106934;28;20024;-67
2023/01/25 02:07:57;;;;;;;9.60;6.15;;;3.80;73.50;;;;;;5109321;28;20181;-65
2023/01/25 02:10:25;;;;;;;13.13;7.22;;;3.80;73.60;;;;;;5112736;28;20015;-60
2023/01/25 02:12:54;;;;;;;9.98;6.00;;;3.80;73.60;;;;;;5095467;28;20082;-60
2023/01/25 02:15:20;;;;;;;8.73;5.93;;;3.80;73.60;;;;;;5101707;28;20027;-60
2023/01/25 02:17:47;;;;;;;10.02;7.05;;;3.90;73.60;;;;;;5104545;28;20032;-60
2023/01/25 02:20:31;;;;;;;7.75;4.90;;;3.90;73.50;;;;;;5082578;28;20094;-61
2023/01/25 02:23:25;;;;;;;8.18;6.18;;;3.80;73.50;;;;;;5092355;28;20431;-60
2023/01/25 02:25:51;;;;;;;9.93;6.75;;;3.90;73.50;;;;;;5093485;28;20047;-60
2023/01/25 02:28:54;;;;;;;8.82;5.43;;;3.80;73.60;;;;;;5081832;28;20067;-60
2023/01/25 02:31:20;;;;;;;;;;;3.80;73.40;;;;;;5061037;28;20035;-60
2023/01/25 02:33:46;;;;;;;7.45;4.88;;;3.80;73.60;;;;;;5096613;28;20312;-60
2023/01/25 02:36:17;;;;;;;8.07;6.00;;;3.70;73.80;;;;;;5093206;28;20051;-60
2023/01/25 02:39:12;;;;;;;10.32;7.22;;;3.80;73.60;;;;;;5097478;28;20103;-60
2023/01/25 02:41:39;;;;;;;10.45;5.90;;;3.80;73.40;;;;;;5089481;28;20036;-67
2023/01/25 02:44:15;;;;;;;9.30;6.25;;;3.70;73.50;;;;;;5097755;28;20530;-67
2023/01/25 02:46:43;;;;;;;9.13;6.55;;;3.70;73.50;;;;;;5091600;28;20028;-67
2023/01/25 02:49:10;;;;;;;8.40;5.35;;;3.70;73.60;;;;;;5092677;28;20036;-67
2023/01/25 02:51:39;;;;;;;9.40;6.47;;;3.70;73.50;;;;;;5093197;28;20356;-66
2023/01/25 02:54:07;;;;;;;9.05;6.90;;;3.70;73.50;;;;;;5102200;28;20043;-67
2023/01/25 02:56:33;;;;;;;8.63;5.88;;;3.60;73.50;;;;;;5098681;28;20024;-66
2023/01/25 02:59:04;;;;;;;9.07;5.68;;;3.60;73.60;;;;;;5098714;28;20035;-66
2023/01/25 03:01:36;;;;;;;7.10;5.35;;;3.60;73.60;;;;;;5097771;28;20038;-66
2023/01/25 03:04:02;;;;;;;7.88;6.55;;;3.70;73.70;;;;;;5098319;28;20012;-66
2023/01/25 03:06:28;;;;;;;11.90;6.40;;;3.70;73.70;;;;;;5095137;28;20020;-66
2023/01/25 03:08:54;;;;;;;8.77;6.85;;;3.70;73.50;;;;;;5096819;28;20043;-60
2023/01/25 03:11:20;;;;;;;8.50;4.78;;;3.60;73.60;;;;;;5095999;28;20035;-60
2023/01/25 03:13:45;;;;;;;9.13;6.03;;;3.60;74.20;;;;;;5099576;28;20020;-60
2023/01/25 03:16:12;;;;;;;8.02;6.30;;;3.60;73.60;;;;;;5094355;28;20047;-60
2023/01/25 03:18:38;;;;;;;10.68;6.28;;;3.60;73.70;;;;;;5091065;28;20535;-60
2023/01/25 03:21:10;;;;;;;11.98;6.53;;;3.60;73.70;;;;;;5085690;28;20122;-59
2023/01/25 03:23:36;;;;;;;9.25;5.82;;;3.60;73.70;;;;;;5087626;28;20024;-60
2023/01/25 03:26:10;;;;;;;10.38;6.20;;;3.60;73.70;;;;;;5088380;28;20495;-61
2023/01/25 03:28:37;;;;;;;11.07;6.53;;;3.60;73.80;;;;;;5085440;28;20047;-60
2023/01/25 03:31:04;;;;;;;8.50;5.72;;;3.60;73.70;;;;;;5098225;28;20059;-61
2023/01/25 03:33:29;;;;;;;8.23;6.07;;;3.70;73.70;;;;;;5070606;28;20032;-60
2023/01/25 03:35:55;;;;;;;10.50;6.95;;;3.70;73.60;;;;;;5088878;28;20449;-60
2023/01/25 03:38:21;;;;;;;9.38;6.20;;;3.70;73.70;;;;;;5084685;28;20114;-60
2023/01/25 03:40:47;;;;;;;10.60;7.32;;;3.70;73.70;;;;;;5086347;28;20131;-60
2023/01/25 03:43:13;;;;;;;11.25;7.50;;;3.70;73.80;;;;;;5098301;28;20114;-60
2023/01/25 03:45:38;;;;;;;9.93;7.18;;;3.60;73.80;;;;;;5070749;28;20139;-67
2023/01/25 03:48:04;;;;;;;8.05;5.63;;;3.70;73.80;;;;;;5077174;28;20103;-66
2023/01/25 03:50:30;;;;;;;11.32;7.65;;;3.70;73.70;;;;;;5094272;28;20505;-66
2023/01/25 03:53:29;;;;;;;10.48;6.65;;;3.70;73.70;;;;;;5094783;28;20088;-60
2023/01/25 03:56:09;;;;;;;9.10;6.75;;;3.70;73.50;;;;;;5090629;28;20019;-60
2023/01/25 03:58:37;;;;;;;7.68;5.75;;;3.70;73.50;;;;;;5088625;28;20039;-66
2023/01/25 04:01:04;;;;;;;9.73;6.00;;;3.60;73.50;;;;;;5055092;28;20499;-67
2023/01/25 04:03:31;;;;;;;11.45;6.97;;;3.60;73.50;;;;;;5098797;28;20020;-67
2023/01/25 04:05:57;;;;;;;10.07;5.95;;;3.60;73.50;;;;;;5089906;28;20032;-67
2023/01/25 04:08:23;;;;;;;10.90;7.13;;;3.60;73.60;;;;;;5090097;28;20123;-67
2023/01/25 04:10:53;;;;;;;10.68;7.25;;;3.50;73.60;;;;;;5100602;28;20489;-61
2023/01/25 04:13:24;;;;;;;8.00;6.55;;;3.50;73.70;;;;;;5093231;28;20038;-61
2023/01/25 04:15:50;;;;;;;12.18;7.15;;;3.50;73.80;;;;;;5098796;28;20036;-60
2023/01/25 04:18:16;;;;;;;10.52;5.95;;;3.50;73.80;;;;;;5091307;28;20109;-60
2023/01/25 04:20:42;;;;;;;10.98;7.78;;;3.50;73.80;;;;;;5079361;28;20047;-61
2023/01/25 04:23:08;;;;;;;12.57;7.00;;;3.50;73.90;;;;;;5096292;28;20019;-61
2023/01/25 04:25:35;;;;;;;10.27;6.45;;;3.40;73.90;;;;;;5101895;28;20115;-67
2023/01/25 04:28:00;;;;;;;9.02;6.05;;;3.30;73.90;;;;;;5082953;28;20040;-60
2023/01/25 04:30:26;;;;;;;10.77;7.18;;;3.30;74.10;;;;;;5076263;28;20441;-60
2023/01/25 04:32:52;;;;;;;12.23;5.93;;;3.20;74.00;;;;;;5085987;28;20775;-66
2023/01/25 04:35:19;;;;;;;9.90;6.20;;;3.20;74.00;;;;;;5075587;28;20139;-66
2023/01/25 04:37:55;;;;;;;10.38;7.07;;;3.20;74.20;;;;;;5071594;28;20555;-66
2023/01/25 04:40:21;;;;;;;9.90;6.35;;;3.30;74.20;;;;;;5094062;28;20031;-67
2023/01/25 04:42:47;;;;;;;11.20;6.97;;;3.20;74.20;;;;;;5091443;28;20020;-66
2023/01/25 04:45:12;;;;;;;10.20;6.45;;;3.30;74.10;;;;;;5096299;28;20028;-66
2023/01/25 04:47:38;;;;;;;12.15;7.60;;;3.20;74.00;;;;;;5087228;28;20422;-66
2023/01/25 04:50:04;;;;;;;8.32;5.72;;;3.30;74.00;;;;;;5104492;28;20085;-67
2023/01/25 04:52:30;;;;;;;10.23;7.05;;;3.30;74.00;;;;;;5093836;28;20042;-60
2023/01/25 04:54:55;;;;;;;13.40;7.78;;;3.30;73.90;;;;;;5098425;28;20376;-67
2023/01/25 04:57:21;;;;;;;9.10;6.32;;;3.30;73.90;;;;;;5097050;28;20091;-67
2023/01/25 04:59:47;;;;;;;6.75;5.57;;;3.30;73.90;;;;;;5094286;28;20028;-67
2023/01/25 05:02:12;;;;;;;11.02;6.82;;;3.30;73.80;;;;;;5075032;28;20116;-66
2023/01/25 05:04:38;;;;;;;11.35;7.20;;;3.20;73.80;;;;;;5095913;28;20346;-66
2023/01/25 05:07:04;;;;;;;10.52;7.95;;;3.20;74.10;;;;;;5107884;28;20027;-66
2023/01/25 05:09:29;;;;;;;13.25;8.43;;;3.20;74.10;;;;;;5101672;28;20032;-66
2023/01/25 05:11:55;;;;;;;9.23;6.45;;;3.20;74.00;;;;;;5085283;28;20110;-66
2023/01/25 05:14:21;;;;;;;10.48;7.72;;;3.20;74.00;;;;;;5092692;28;20052;-67
2023/01/25 05:16:46;;;;;;;11.93;7.75;;;3.10;73.80;;;;;;5092800;28;20088;-67
2023/01/25 05:19:12;;;;;;;12.95;7.22;;;3.00;74.00;;;;;;5095991;28;20466;-66
2023/01/25 05:24:26;;;;;;;11.45;6.80;;;3.10;74.30;;;;;;5082796;28;20038;-65
2023/01/25 05:27:04;;;;;;;10.70;7.53;;;3.10;74.20;;;;;;5087497;28;20473;-66
2023/01/25 05:29:34;;;;;;;8.43;6.05;;;3.10;74.20;;;;;;5068959;28;20490;-67
2023/01/25 05:32:01;;;;;;;10.10;6.80;;;3.10;74.30;;;;;;5088175;28;20481;-67
2023/01/25 05:34:26;;;;;;;12.10;7.53;;;3.10;74.30;;;;;;5091943;28;20447;-67
2023/01/25 05:36:52;;;;;;;12.90;8.38;;;3.20;74.40;;;;;;5086987;28;20105;-60
2023/01/25 05:39:18;;;;;;;12.45;8.25;;;3.20;74.30;;;;;;5072303;28;20022;-60
2023/01/25 05:41:44;;;;;;;12.25;7.22;;;3.20;74.20;;;;;;5090885;28;20032;-60
2023/01/25 05:44:10;;;;;;;11.80;6.80;;;3.20;74.10;;;;;;5091608;28;20023;-60
2023/01/25 05:46:35;;;;;;;13.27;7.72;;;3.20;74.20;;;;;;5092101;28;20027;-61
2023/01/25 05:49:01;;;;;;;9.98;7.07;;;3.20;74.30;;;;;;5094231;28;20027;-60
2023/01/25 05:51:27;;;;;;;12.10;8.10;;;3.20;74.20;;;;;;5076458;28;20028;-60
2023/01/25 05:53:56;;;;;;;13.90;8.73;;;3.10;74.20;;;;;;5083641;28;20042;-61
2023/01/25 05:56:22;;;;;;;11.23;7.43;;;3.00;74.40;;;;;;5090993;28;20437;-66
2023/01/25 05:58:52;;;;;;;10.05;7.55;;;3.00;74.40;;;;;;5074384;28;20052;-67
2023/01/25 06:01:18;;;;;;;11.73;7.10;;;3.10;74.40;;;;;;5073558;28;20579;-67
2023/01/25 06:03:45;;;;;;;12.93;8.75;;;3.00;74.90;;;;;;5095678;28;20111;-67
2023/01/25 06:06:11;;;;;;;11.25;6.82;;;2.90;74.30;;;;;;5085282;28;20039;-66
2023/01/25 06:08:36;;;;;;;15.52;8.77;;;3.00;74.40;;;;;;5090132;28;20052;-67
2023/01/25 06:11:13;;;;;;;12.55;7.82;;;3.00;74.40;;;;;;5085767;28;20430;-67
2023/01/25 06:13:38;;;;;;;12.20;9.02;;;3.00;74.40;;;;;;5101922;28;20023;-67
2023/01/25 06:16:04;;;;;;;15.05;8.48;;;3.00;74.40;;;;;;5109410;28;20042;-65
2023/01/25 06:18:31;;;;;;;13.68;7.75;;;3.10;74.40;;;;;;5084268;28;20032;-67
2023/01/25 06:20:58;;;;;;;12.70;8.30;;;3.10;74.20;;;;;;5104460;28;20028;-67
2023/01/25 06:23:24;;;;;;;11.23;9.05;;;3.10;74.20;;;;;;5071127;28;20110;-66
2023/01/25 06:25:50;;;;;;;17.40;9.85;;;3.00;74.20;;;;;;5089398;28;20104;-66
2023/01/25 06:28:16;;;;;;;12.23;7.93;;;3.00;74.30;;;;;;5079538;28;20052;-66
2023/01/25 06:30:42;;;;;;;12.93;8.77;;;3.10;74.30;;;;;;5073322;28;20024;-67
2023/01/25 06:33:07;;;;;;;13.40;8.95;;;3.00;74.30;;;;;;5091692;28;20113;-66
2023/01/25 06:35:33;;;;;;;16.15;9.95;;;3.00;74.30;;;;;;5095659;28;20082;-66
2023/01/25 06:38:00;;;;;;;17.83;9.00;;;3.00;74.20;;;;;;5089654;28;20028;-66
2023/01/25 06:40:26;;;;;;;14.27;10.50;;;3.00;74.20;;;;;;5094540;28;20433;-68
2023/01/25 06:42:52;;;;;;;15.77;9.77;;;2.90;74.20;;;;;;5093344;28;20020;-61
2023/01/25 06:45:18;;;;;;;15.48;9.68;;;2.90;74.40;;;;;;5095165;28;20032;-62
2023/01/25 06:47:45;;;;;;;13.93;9.85;;;2.80;74.60;;;;;;5096337;28;20478;-61
2023/01/25 06:50:11;;;;;;;14.50;9.10;;;2.80;74.50;;;;;;5092454;28;20032;-68
2023/01/25 06:52:37;;;;;;;13.02;8.07;;;2.80;74.60;;;;;;5102563;28;20111;-68
2023/01/25 06:55:08;;;;;;;13.15;9.07;;;2.80;74.80;;;;;;5092581;28;20103;-61
2023/01/25 06:57:34;;;;;;;10.50;8.13;;;2.80;74.70;;;;;;5083761;28;20028;-60
2023/01/25 07:00:00;;;;;;;17.45;9.82;;;2.80;74.70;;;;;;5098062;28;20084;-60
2023/01/25 07:02:26;;;;;;;17.02;9.40;;;2.80;74.70;;;;;;5086290;28;20016;-71
2023/01/25 07:04:52;;;;;;;14.65;8.88;;;2.90;74.80;;;;;;5078819;28;20510;-60
2023/01/25 07:07:17;;;;;;;14.73;8.85;;;2.90;74.60;;;;;;5098612;28;20020;-60
2023/01/25 07:09:43;;;;;;;16.13;9.32;;;2.90;74.50;;;;;;5093021;28;20093;-60
2023/01/25 07:12:09;;;;;;;15.50;8.88;;;3.00;74.50;;;;;;5087441;28;20034;-71
2023/01/25 07:14:35;;;;;;;14.18;9.70;;;3.00;74.50;;;;;;5071550;28;20205;-73
2023/01/25 07:17:00;;;;;;;14.95;9.60;;;2.90;74.50;;;;;;5089834;28;20024;-72
2023/01/25 07:19:26;;;;;;;13.10;8.50;;;3.00;74.60;;;;;;5088099;28;20405;-60
2023/01/25 07:21:52;;;;;;;14.45;8.80;;;3.00;74.60;;;;;;5093545;28;20193;-71
2023/01/25 07:24:19;;;;;;;11.75;8.70;;;2.90;74.60;;;;;;5081763;28;20034;-72
2023/01/25 07:26:45;;;;;;;15.27;10.05;;;2.80;74.80;;;;;;5092837;28;20097;-70
2023/01/25 07:29:13;;;;;;;15.98;10.00;;;2.90;74.90;;;;;;5089218;28;21242;-70
2023/01/25 07:31:40;;;;;;;19.08;9.80;;;2.90;74.90;;;;;;5093086;28;20479;-62
2023/01/25 07:34:09;;;;;;;18.48;9.23;;;2.90;74.80;;;;;;5099415;28;20019;-61
2023/01/25 07:36:35;;;;;;;13.77;9.90;;;3.00;74.80;;;;;;5074487;28;20467;-61
2023/01/25 07:39:01;;;;;;;12.95;8.07;;;3.00;74.70;;;;;;5080578;28;20032;-68
2023/01/25 07:41:27;;;;;;;15.55;9.73;;;3.10;74.60;;;;;;5090583;28;20043;-71
2023/01/25 07:43:53;;;;;;;10.95;9.02;;;3.10;74.50;;;;;;5073244;28;20047;-63
2023/01/25 07:46:18;;;;;;;14.68;10.07;;;3.10;74.40;;;;;;5099132;28;20069;-59
2023/01/25 07:48:50;;;;;;;14.60;9.48;;;3.10;74.40;;;;;;5071096;28;20020;-60
2023/01/25 07:51:28;;;;;;;11.03;8.57;;;3.10;74.30;;;;;;5088630;28;20031;-62
2023/01/25 07:54:02;;;;;;;16.27;10.13;;;3.10;74.30;;;;;;5084888;28;20093;-60
2023/01/25 07:56:31;;;;;;;13.02;9.52;;;3.00;74.40;;;;;;5086343;28;20028;-60
2023/01/25 07:58:58;;;;;;;14.05;8.25;;;3.00;74.60;;;;;;5082586;28;20024;-60
2023/01/25 08:01:27;;;;;;;13.20;10.25;;;3.00;74.50;;;;;;5081946;28;20043;-59
2023/01/25 08:03:57;;;;;;;12.85;9.27;;;3.00;74.40;;;;;;5081730;28;20019;-60
2023/01/25 08:06:30;;;;;;;15.52;10.82;;;3.00;74.60;;;;;;5080196;28;20410;-59
2023/01/25 08:08:57;;;;;;;14.48;9.70;;;2.90;74.70;;;;;;5078890;28;20024;-60
2023/01/25 08:11:26;;;;;;;16.73;9.60;;;2.80;74.90;;;;;;5085666;28;20020;-60
2023/01/25 08:13:52;;;;;;;12.77;10.20;;;2.80;74.90;;;;;;5087361;28;20027;-61
2023/01/25 08:16:25;;;;;;;13.27;9.27;;;2.80;75.00;;;;;;5103754;28;20032;-60
2023/01/25 08:18:57;;;;;;;15.02;10.38;;;2.80;75.10;;;;;;5092516;28;20499;-60
2023/01/25 08:21:24;;;;;;;18.90;9.85;;;2.80;75.00;;;;;;5102376;28;20036;-60
2023/01/25 08:23:50;;;;;;;18.10;9.95;;;2.80;75.00;;;;;;5090124;28;20031;-61
2023/01/25 08:26:16;;;;;;;16.40;9.77;;;2.80;75.00;;;;;;5096484;28;20127;-61
2023/01/25 08:28:43;;;;;;;13.93;9.85;;;2.80;74.90;;;;;;5062380;28;20579;-68
2023/01/25 08:31:15;;;;;;;12.32;10.38;;;2.70;75.00;;;;;;5088737;28;20105;-69
2023/01/25 08:33:44;;;;;;;18.98;10.57;;;2.60;75.30;;;;;;5091002;28;20111;-68
2023/01/25 08:36:11;;;;;;;16.63;9.43;;;2.60;75.50;;;;;;5099357;28;20062;-60
2023/01/25 08:38:37;;;;;;;17.25;10.45;;;2.60;75.40;;;;;;5089383;28;20493;-59
2023/01/25 08:41:16;;;;;;;16.73;9.88;;;2.70;75.40;;;;;;5092941;28;20111;-59
2023/01/25 08:43:43;;;;;;;16.70;8.23;;;2.70;75.30;;;;;;5094970;28;20107;-60
2023/01/25 08:46:10;;;;;;;14.20;9.43;;;2.70;75.30;;;;;;5092435;28;20024;-59
2023/01/25 08:48:36;;;;;;;16.67;9.40;;;2.70;75.10;;;;;;5098632;28;20035;-60
2023/01/25 08:51:02;;;;;;;17.58;8.95;;;2.70;75.10;;;;;;5091426;28;20023;-59
2023/01/25 08:53:29;;;;;;;15.60;10.15;;;2.60;75.00;;;;;;5079470;28;20438;-60
2023/01/25 08:55:55;;;;;;;14.63;10.25;;;2.60;75.20;;;;;;5094263;28;20028;-59
2023/01/25 08:58:21;;;;;;;16.63;8.50;;;2.60;75.40;;;;;;5091159;28;20040;-60
2023/01/25 09:00:48;;;;;;;13.65;8.63;;;2.60;75.40;;;;;;5078996;28;20106;-60
2023/01/25 09:03:14;;;;;;;15.18;10.70;;;2.60;75.40;;;;;;5083509;28;20050;-60
2023/01/25 09:05:40;;;;;;;11.82;8.68;;;2.60;75.30;;;;;;5086157;28;20031;-59
2023/01/25 09:08:08;;;;;;;13.95;9.50;;;2.70;75.30;;;;;;5088358;28;20475;-59
2023/01/25 09:10:34;;;;;;;15.10;8.82;;;2.70;75.20;;;;;;5082093;28;20035;-59
2023/01/25 09:13:01;;;;;;;15.90;9.77;;;2.70;75.20;;;;;;5090632;28;20115;-59
2023/01/25 09:15:26;;;;;;;15.77;9.43;;;2.70;75.20;;;;;;5071142;28;20032;-60
2023/01/25 09:17:54;;;;;;;14.55;9.40;;;2.70;75.10;;;;;;5077483;28;20476;-60
2023/01/25 09:20:19;;;;;;;23.83;11.82;;;2.80;75.10;;;;;;5080894;28;20453;-66
2023/01/25 09:22:46;;;;;;;14.52;10.25;;;2.70;74.90;;;;;;5097813;28;20098;-65
2023/01/25 09:25:13;;;;;;;14.43;10.10;;;2.70;75.00;;;;;;5093624;28;20507;-65
2023/01/25 09:27:39;;;;;;;18.02;10.25;;;2.60;75.10;;;;;;5085276;28;20070;-66
2023/01/25 09:30:07;;;;;;;14.40;10.35;;;2.60;75.20;;;;;;5079818;28;20090;-66
2023/01/25 09:32:32;;;;;;;15.88;10.00;;;2.60;75.30;;;;;;5089246;28;20033;-66
2023/01/25 09:34:58;;;;;;;14.35;9.10;;;2.70;75.30;;;;;;5071505;28;20028;-65
2023/01/25 09:37:24;;;;;;;14.55;10.30;;;2.70;75.30;;;;;;5094453;28;20264;-66
2023/01/25 09:39:49;;;;;;;14.93;9.82;;;2.70;75.40;;;;;;5078263;28;20036;-65
2023/01/25 09:42:33;;;;;;;15.00;9.05;;;2.70;75.30;;;;;;5095157;28;20116;-65
2023/01/25 09:45:34;;;;;;;19.30;10.85;;;2.80;75.20;;;;;;5107845;28;20474;-66
2023/01/25 09:48:13;;;;;;;18.55;11.07;;;2.80;75.10;;;;;;5101258;28;20016;-65
2023/01/25 09:51:02;;;;;;;15.95;10.70;;;2.80;75.20;;;;;;5097904;28;20032;-66
2023/01/25 09:53:33;;;;;;;15.55;10.23;;;2.80;75.20;;;;;;5094039;28;20089;-66
2023/01/25 09:56:29;;;;;;;17.02;9.75;;;2.80;75.20;;;;;;5088742;28;20037;-59
2023/01/25 09:58:59;;;;;;;13.93;10.60;;;2.90;75.20;;;;;;5092518;28;20646;-66
2023/01/25 10:01:40;;;;;;;16.77;10.68;;;2.90;75.10;;;;;;5094419;28;20020;-58
2023/01/25 10:04:17;;;;;;;17.25;10.95;;;3.00;75.00;;;;;;5098549;28;20024;-65
2023/01/25 10:06:45;;;;;;;17.27;11.18;;;3.00;75.00;;;;;;5102145;28;20016;-64
2023/01/25 10:09:20;;;;;;;15.43;9.70;;;2.90;75.00;;;;;;5106750;28;20016;-65
2023/01/25 10:11:46;;;;;;;15.48;10.65;;;3.00;74.90;;;;;;5090901;28;20020;-65
2023/01/25 10:14:15;;;;;;;18.27;10.82;;;2.90;74.80;;;;;;5061182;28;20135;-65
2023/01/25 10:16:47;;;;;;;19.98;10.38;;;2.80;74.90;;;;;;5110910;28;20057;-65
2023/01/25 10:19:33;;;;;;;17.88;9.95;;;2.80;75.20;;;;;;5099581;28;20028;-65
2023/01/25 10:22:02;;;;;;;16.95;10.95;;;2.80;75.00;;;;;;5102352;28;20084;-65
2023/01/25 10:24:57;;;;;;;14.10;10.43;;;2.70;75.10;;;;;;5101436;28;20020;-59
2023/01/25 10:27:49;;;;;;;16.23;10.38;;;2.80;75.00;;;;;;5090576;28;20024;-65
2023/01/25 10:30:37;;;;;;;14.90;8.88;;;2.70;75.10;;;;;;5084789;28;20046;-59
2023/01/25 10:33:16;;;;;;;16.55;9.45;;;2.80;75.20;;;;;;5081647;28;20449;-66
2023/01/25 10:35:48;;;;;;;17.73;9.85;;;2.80;75.00;;;;;;5091748;28;20645;-65
2023/01/25 10:38:24;;;;;;;20.40;10.93;;;2.80;75.00;;;;;;5100813;28;20115;-59
2023/01/25 10:40:57;;;;;;;19.63;11.25;;;2.90;75.00;;;;;;5110111;28;20034;-59
2023/01/25 10:43:23;;;;;;;15.95;10.02;;;2.90;75.00;;;;;;5076190;28;20118;-66
2023/01/25 10:45:49;;;;;;;16.83;10.80;;;3.00;74.90;;;;;;5087697;28;20103;-66
2023/01/25 10:48:28;;;;;;;21.50;11.75;;;3.00;74.90;;;;;;5091688;28;20066;-66
2023/01/25 10:50:56;;;;;;;16.52;9.77;;;3.10;74.80;;;;;;5092454;28;20030;-66
2023/01/25 10:53:34;;;;;;;14.27;10.85;;;3.10;74.60;;;;;;5099727;28;20398;-66
2023/01/25 10:56:18;;;;;;;17.15;10.50;;;3.00;74.40;;;;;;5092822;28;20046;-65
2023/01/25 10:58:46;;;;;;;14.73;11.10;;;2.90;74.60;;;;;;5104859;28;20439;-66
2023/01/25 11:01:33;;;;;;;17.70;11.05;;;2.80;74.90;;;;;;5084427;28;20024;-65
2023/01/25 11:04:00;;;;;;;17.98;10.48;;;2.80;75.00;;;;;;5095271;28;20024;-65
2023/01/25 11:06:35;;;;;;;18.58;11.45;;;2.70;75.20;;;;;;5099580;28;20032;-66
2023/01/25 11:09:21;;;;;;;17.25;9.93;;;2.70;75.20;;;;;;5108728;28;20031;-65
2023/01/25 11:12:15;;;;;;;17.17;11.43;;;2.70;75.20;;;;;;5093981;28;20019;-65
2023/01/25 11:14:41;;;;;;;15.52;9.25;;;2.70;75.30;;;;;;5107906;28;20027;-58
2023/01/25 11:17:20;;;;;;;17.00;11.43;;;2.70;75.40;;;;;;5093029;28;20505;-58
2023/01/25 11:19:45;;;;;;;16.02;9.82;;;2.70;75.20;;;;;;5091832;28;20024;-65
2023/01/25 11:22:17;;;;;;;19.02;10.98;;;2.70;75.30;;;;;;5092034;28;20542;-65
2023/01/25 11:24:43;;;;;;;16.77;12.02;;;2.80;75.20;;;;;;5091253;28;20088;-58
2023/01/25 11:27:17;;;;;;;18.83;11.93;;;2.80;75.10;;;;;;5084651;28;20072;-60
2023/01/25 11:29:45;;;;;;;17.30;11.73;;;2.80;75.00;;;;;;5079240;28;20500;-60
2023/01/25 11:32:22;;;;;;;19.15;11.40;;;2.90;75.00;;;;;;5091292;28;20032;-60
2023/01/25 11:34:49;;;;;;;21.98;11.82;;;2.90;75.00;;;;;;5091553;28;20059;-65
2023/01/25 11:37:41;;;;;;;13.13;10.00;;;2.90;74.90;;;;;;5090552;28;20020;-59
2023/01/25 11:40:16;;;;;;;14.10;11.10;;;2.90;74.80;;;;;;5091489;28;20028;-59
2023/01/25 11:43:00;;;;;;;19.60;9.93;;;2.80;75.00;;;;;;5078717;28;20024;-59
2023/01/25 11:46:03;;;;;;;14.02;9.48;;;2.80;75.10;;;;;;5090627;28;20024;-65
2023/01/25 11:48:53;;;;;;;18.20;12.00;;;2.80;75.20;;;;;;5106248;28;20024;-59
2023/01/25 11:51:25;;;;;;;16.92;11.10;;;2.70;75.30;;;;;;5094563;28;20031;-58
2023/01/25 11:54:00;;;;;;;17.87;11.77;;;2.70;75.50;;;;;;5102307;28;20084;-61
2023/01/25 11:56:31;;;;;;;18.33;11.90;;;2.70;75.40;;;;;;5090436;28;20502;-59
2023/01/25 11:59:16;;;;;;;18.95;11.63;;;2.80;75.40;;;;;;5081732;28;20075;-60
2023/01/25 12:02:05;;;;;;;14.70;10.38;;;2.70;75.50;;;;;;5089722;28;20093;-59
2023/01/25 12:04:52;;;;;;;16.85;11.80;;;2.80;75.40;;;;;;5103552;28;20020;-60
2023/01/25 12:07:40;;;;;;;17.98;11.75;;;2.80;75.30;;;;;;5088237;28;20539;-60
2023/01/25 12:10:23;;;;;;;16.70;11.00;;;2.80;75.20;;;;;;5103789;28;20024;-60
2023/01/25 12:13:15;;;;;;;17.63;10.63;;;2.80;75.20;;;;;;5109123;28;20036;-66
2023/01/25 12:15:59;;;;;;;20.75;12.73;;;2.80;75.30;;;;;;5081938;28;20424;-66
2023/01/25 12:18:40;;;;;;;23.98;12.73;;;2.80;75.40;;;;;;5102961;28;20040;-66
2023/01/25 12:21:12;;;;;;;17.05;12.18;;;2.80;75.40;;;;;;5087979;28;20034;-66
2023/01/25 12:23:41;;;;;;;22.05;11.82;;;2.90;75.40;;;;;;5080393;28;20382;-66
2023/01/25 12:26:26;;;;;;;26.30;13.80;;;2.90;75.50;;;;;;5087251;28;20526;-66
2023/01/25 12:29:10;;;;;;;26.92;15.30;;;2.90;75.30;;;;;;5070485;28;20552;-66
2023/01/25 12:31:49;;;;;;;20.25;13.13;;;2.90;75.20;;;;;;5069495;28;20084;-65
2023/01/25 12:34:50;;;;;;;19.95;11.77;;;2.80;75.30;;;;;;5105374;28;20039;-59
2023/01/25 12:37:23;;;;;;;25.75;15.00;;;2.70;75.30;;;;;;5096638;28;20043;-60
2023/01/25 12:39:57;;;;;;;23.77;12.80;;;2.60;75.70;;;;;;5085366;28;20032;-59
2023/01/25 12:42:36;;;;;;;21.77;15.57;;;2.50;75.90;;;;;;5083677;28;20019;-58
2023/01/25 12:45:13;;;;;;;24.40;13.07;;;2.60;76.10;;;;;;5079312;28;20091;-59
2023/01/25 12:47:57;;;;;;;21.38;13.98;;;2.60;76.00;;;;;;5089142;28;20135;-58
2023/01/25 12:50:34;;;;;;;24.05;13.13;;;2.60;75.80;;;;;;5100303;28;20423;-65
2023/01/25 12:53:12;;;;;;;18.08;11.68;;;2.60;75.90;;;;;;5080718;28;20491;-64
2023/01/25 12:55:39;;;;;;;19.35;12.18;;;2.60;75.90;;;;;;5092642;28;20024;-65
2023/01/25 12:58:39;;;;;;;24.00;12.82;;;2.70;76.00;;;;;;5101921;28;20031;-66
2023/01/25 13:01:19;;;;;;;22.17;14.73;;;2.70;75.70;;;;;;5055596;28;20513;-58
2023/01/25 13:03:55;;;;;;;25.27;14.48;;;2.70;75.70;;;;;;5095838;28;20016;-58
2023/01/25 13:06:45;;;;;;;23.52;13.75;;;2.70;75.80;;;;;;5094802;28;20110;-58
2023/01/25 13:09:22;;;;;;;20.13;13.85;;;2.60;75.80;;;;;;5089884;28;20020;-66